KAHN/AHN METAR and TAF weather

Enter ICAO airport designator
Station Type Date Time Source
KAHN METAR 2021/09/23 23:51 UTC NOAA

KAHN 232351Z AUTO 00000KT 10SM CLR 17/08 A3000 RMK AO2 SLP157 T01720083 10261 20172 53010 TSNO


Station Type Date Time Source
KAHN Decoded METAR 2021/09/23 23:51 UTC NOAA

ATHENS BEN EPPS AIRPORT, GA, United States (KAHN) 33-57N 083-20W 244M
Sep 23, 2021 - 07:51 PM EDT / 2021.09.23 2351 UTC
Wind: Calm:0
Visibility: 10 mile(s):0
Sky conditions: clear
Temperature: 63.0 F (17.2 C)
Dew Point: 46.9 F (8.3 C)
Relative Humidity: 55%
Pressure (altimeter): 30 in. Hg (1015 hPa)
Pressure tendency: 0.03 inches (1.0 hPa) higher than three hours ago
ob: KAHN 232351Z AUTO 00000KT 10SM CLR 17/08 A3000 RMK AO2 SLP157 T01720083 10261 20172 53010 TSNO
cycle: 0

Station Type Date Time Source
KAHN TAF 2021/09/23 18:54 UTC NOAA

TAF KAHN 231752Z 2318/2418 31010KT P6SM SKC
FM240000 35005KT P6SM SKC
FM241400 04005KT P6SM SKC

Example: see airport list